Time;durP1;ratioP1;P1;durP2;ratioP2;P2;SDS_P1;SDS_P2;PMS_P1;PMS_P2;Temp;Humidity;BMP_temperature;BMP_pressure;BME280_temperature;BME280_humidity;BME280_pressure;Samples;Min_cycle;Max_cycle;Signal;HPM_P1;HPM_P2
2024/03/14 00:02:25;;;;;;;11.93;4.43;;;10.90;99.90;;;;;;5041372;28;20645;-62
2024/03/14 00:04:51;;;;;;;10.52;4.13;;;10.90;99.90;;;;;;5036831;28;20024;-63
2024/03/14 00:07:16;;;;;;;10.63;4.07;;;10.90;99.90;;;;;;5044404;28;20025;-63
2024/03/14 00:09:43;;;;;;;11.35;4.50;;;10.90;99.90;;;;;;5038368;28;20033;-65
2024/03/14 00:12:10;;;;;;;11.80;4.80;;;10.90;99.90;;;;;;5040181;28;20032;-64
2024/03/14 00:14:37;;;;;;;10.25;4.63;;;10.90;99.90;;;;;;5039213;28;20049;-64
2024/03/14 00:17:03;;;;;;;10.95;4.82;;;10.90;99.90;;;;;;5043627;28;20033;-64
2024/03/14 00:19:28;;;;;;;12.10;5.00;;;10.90;99.90;;;;;;5038238;28;20072;-64
2024/03/14 00:21:54;;;;;;;11.00;4.72;;;10.90;99.90;;;;;;5040894;28;20017;-64
2024/03/14 00:24:20;;;;;;;11.77;4.57;;;10.90;99.90;;;;;;5037017;28;20025;-64
2024/03/14 00:26:45;;;;;;;11.38;5.25;;;10.90;99.90;;;;;;5038395;28;20088;-64
2024/03/14 00:29:11;;;;;;;13.63;5.35;;;10.90;99.90;;;;;;5040495;28;20039;-64
2024/03/14 00:31:40;;;;;;;10.63;4.30;;;10.90;99.90;;;;;;5035841;28;20054;-64
2024/03/14 00:34:07;;;;;;;14.17;5.73;;;11.00;99.90;;;;;;5045540;28;20032;-64
2024/03/14 00:36:37;;;;;;;10.85;4.88;;;11.00;99.90;;;;;;5048362;28;20546;-63
2024/03/14 00:39:06;;;;;;;11.95;4.55;;;11.00;99.90;;;;;;5045967;28;20025;-64
2024/03/14 00:41:33;;;;;;;11.13;4.95;;;10.90;99.90;;;;;;5045137;28;20075;-64
2024/03/14 00:43:59;;;;;;;12.68;5.10;;;10.90;99.90;;;;;;5050161;28;20048;-64
2024/03/14 00:46:25;;;;;;;13.25;5.05;;;10.90;99.90;;;;;;5045608;28;20036;-64
2024/03/14 00:48:52;;;;;;;14.27;6.18;;;10.90;99.90;;;;;;5046916;28;20017;-64
2024/03/14 00:51:17;;;;;;;10.55;4.35;;;10.90;99.90;;;;;;5046211;28;20025;-64
2024/03/14 00:53:43;;;;;;;12.80;5.00;;;10.90;99.90;;;;;;5044858;28;20045;-64
2024/03/14 00:56:11;;;;;;;12.50;5.57;;;10.90;99.90;;;;;;5039742;28;20103;-64
2024/03/14 00:58:38;;;;;;;10.15;3.83;;;10.90;99.90;;;;;;5047808;28;20024;-64
2024/03/14 01:01:03;;;;;;;12.85;5.07;;;11.00;99.90;;;;;;5041164;28;20021;-63
2024/03/14 01:03:32;;;;;;;15.60;5.70;;;10.90;99.90;;;;;;5040477;28;20013;-64
2024/03/14 01:05:58;;;;;;;12.75;5.25;;;11.00;99.90;;;;;;5045009;28;20025;-64
2024/03/14 01:08:24;;;;;;;13.90;5.03;;;11.00;99.90;;;;;;5037557;28;20029;-64
2024/03/14 01:10:50;;;;;;;12.35;5.35;;;10.90;99.90;;;;;;5048264;28;20036;-63
2024/03/14 01:13:15;;;;;;;11.70;5.18;;;11.00;99.90;;;;;;5050682;28;20017;-64
2024/03/14 01:15:41;;;;;;;10.88;4.75;;;11.00;99.90;;;;;;5040836;28;20164;-63
2024/03/14 01:18:07;;;;;;;11.93;4.90;;;11.00;99.90;;;;;;5041165;28;20243;-63
2024/03/14 01:20:33;;;;;;;8.88;3.92;;;11.00;99.90;;;;;;5044523;28;20013;-63
2024/03/14 01:22:59;;;;;;;11.82;4.55;;;10.90;99.90;;;;;;5044744;28;20349;-63
2024/03/14 01:25:24;;;;;;;11.40;4.13;;;10.90;99.90;;;;;;5042272;28;20033;-63
2024/03/14 01:27:50;;;;;;;10.93;4.82;;;11.00;99.90;;;;;;5045484;28;20044;-63
2024/03/14 01:30:16;;;;;;;11.32;4.50;;;11.00;99.90;;;;;;5045534;28;20090;-62
2024/03/14 01:32:41;;;;;;;11.55;4.63;;;11.00;99.90;;;;;;5043911;28;20155;-63
2024/03/14 01:35:08;;;;;;;10.38;4.47;;;10.90;99.90;;;;;;5045290;28;20056;-63
2024/03/14 01:37:34;;;;;;;11.48;4.68;;;10.90;99.90;;;;;;5046148;28;20024;-63
2024/03/14 01:40:04;;;;;;;12.07;5.20;;;10.90;99.90;;;;;;5042542;28;20040;-63
2024/03/14 01:42:30;;;;;;;13.93;5.03;;;10.90;99.90;;;;;;5044346;28;20093;-63
2024/03/14 01:45:09;;;;;;;14.27;5.40;;;10.80;99.90;;;;;;5044713;28;20104;-63
2024/03/14 01:47:34;;;;;;;10.65;4.35;;;10.80;99.90;;;;;;5045303;28;20031;-63
2024/03/14 01:50:01;;;;;;;12.68;4.60;;;10.80;99.90;;;;;;5044655;28;20016;-63
2024/03/14 01:52:27;;;;;;;13.85;5.13;;;10.80;99.90;;;;;;5046719;28;20036;-63
2024/03/14 01:54:52;;;;;;;12.32;4.78;;;10.80;99.90;;;;;;5040823;28;20115;-63
2024/03/14 01:57:19;;;;;;;11.00;4.63;;;10.90;99.90;;;;;;5043862;28;20100;-63
2024/03/14 01:59:49;;;;;;;12.55;4.60;;;10.90;99.90;;;;;;5042297;28;20025;-63
2024/03/14 02:02:17;;;;;;;11.70;5.30;;;10.80;99.90;;;;;;5047288;28;20568;-63
2024/03/14 02:05:00;;;;;;;12.75;5.45;;;10.80;99.90;;;;;;5044774;28;20044;-63
2024/03/14 02:07:32;;;;;;;12.13;5.30;;;10.80;99.90;;;;;;5043404;28;20384;-63
2024/03/14 02:09:58;;;;;;;10.20;4.45;;;10.70;99.90;;;;;;5040239;28;20037;-63
2024/03/14 02:12:23;;;;;;;11.73;4.97;;;10.70;99.90;;;;;;5039677;28;20403;-63
2024/03/14 02:14:49;;;;;;;14.10;4.78;;;10.70;99.90;;;;;;5046044;28;20048;-63
2024/03/14 02:17:14;;;;;;;14.00;5.38;;;10.60;99.90;;;;;;5039049;28;20033;-63
2024/03/14 02:19:40;;;;;;;12.55;5.53;;;10.70;99.90;;;;;;5046040;28;20095;-63
2024/03/14 02:22:06;;;;;;;12.73;5.05;;;10.70;99.90;;;;;;5044688;28;20052;-63
2024/03/14 02:24:32;;;;;;;10.98;4.93;;;10.70;99.90;;;;;;5038144;28;20026;-63
2024/03/14 02:27:04;;;;;;;13.65;5.30;;;10.70;99.90;;;;;;5039763;28;20358;-63
2024/03/14 02:29:29;;;;;;;11.43;4.90;;;10.70;99.90;;;;;;5039506;28;20032;-63
2024/03/14 02:31:55;;;;;;;12.63;5.43;;;10.60;99.90;;;;;;5046318;28;20475;-63
2024/03/14 02:34:20;;;;;;;13.27;5.45;;;10.60;99.90;;;;;;5041499;28;20068;-63
2024/03/14 02:36:46;;;;;;;13.80;5.38;;;10.60;99.90;;;;;;5043849;28;20032;-63
2024/03/14 02:39:14;;;;;;;12.98;5.00;;;10.60;99.90;;;;;;5041682;28;20024;-63
2024/03/14 02:41:40;;;;;;;12.45;5.30;;;10.60;99.90;;;;;;5043132;28;20648;-63
2024/03/14 02:44:16;;;;;;;11.80;5.32;;;10.60;99.90;;;;;;5045063;28;20531;-65
2024/03/14 02:46:42;;;;;;;13.50;5.25;;;10.50;99.90;;;;;;5041609;28;20055;-64
2024/03/14 02:49:13;;;;;;;12.55;5.43;;;10.50;99.90;;;;;;5037746;28;20648;-63
2024/03/14 02:51:38;;;;;;;;;;;10.50;99.90;;;;;;5040587;28;20033;-63
2024/03/14 02:54:07;;;;;;;12.20;5.30;;;10.50;99.90;;;;;;5041670;28;20387;-63
2024/03/14 02:56:33;;;;;;;14.05;5.28;;;10.50;99.90;;;;;;5038756;28;20033;-63
2024/03/14 02:58:59;;;;;;;13.50;5.20;;;10.50;99.90;;;;;;5041695;28;20391;-64
2024/03/14 03:01:25;;;;;;;14.60;5.05;;;10.50;99.90;;;;;;5044646;28;20036;-64
2024/03/14 03:03:53;;;;;;;11.60;5.10;;;10.50;99.90;;;;;;5040480;28;20021;-63
2024/03/14 03:06:19;;;;;;;12.57;5.50;;;10.50;99.90;;;;;;5041388;28;20029;-63
2024/03/14 03:08:45;;;;;;;14.32;5.70;;;10.40;99.90;;;;;;5039652;28;20068;-63
2024/03/14 03:11:11;;;;;;;13.10;5.22;;;10.20;99.90;;;;;;5044379;28;20484;-63
2024/03/14 03:13:37;;;;;;;13.88;5.03;;;10.20;99.90;;;;;;5042761;28;20100;-64
2024/03/14 03:16:04;;;;;;;14.00;5.45;;;10.20;99.90;;;;;;5038720;28;20056;-64
2024/03/14 03:18:32;;;;;;;14.38;5.43;;;10.20;99.90;;;;;;5041878;28;20029;-63
2024/03/14 03:20:58;;;;;;;11.45;4.93;;;10.20;99.90;;;;;;5042942;28;20108;-63
2024/03/14 03:23:24;;;;;;;13.60;5.28;;;10.20;99.90;;;;;;5040294;28;20021;-63
2024/03/14 03:25:50;;;;;;;13.05;4.97;;;10.20;99.90;;;;;;5037273;28;20071;-63
2024/03/14 03:28:16;;;;;;;11.20;5.10;;;10.20;99.90;;;;;;5041536;28;20056;-63
2024/03/14 03:30:44;;;;;;;10.65;5.00;;;10.20;99.90;;;;;;5039175;28;20437;-63
2024/03/14 03:33:11;;;;;;;10.18;4.63;;;10.20;99.90;;;;;;5038108;28;20041;-63
2024/03/14 03:35:38;;;;;;;13.23;5.05;;;10.20;99.90;;;;;;5040929;28;20039;-62
2024/03/14 03:38:06;;;;;;;11.18;4.80;;;10.20;99.90;;;;;;5048151;28;20029;-63
2024/03/14 03:40:35;;;;;;;14.35;5.35;;;10.30;99.90;;;;;;5038961;28;20063;-62
2024/03/14 03:43:04;;;;;;;12.48;4.38;;;10.20;99.90;;;;;;5042241;28;20021;-63
2024/03/14 03:45:29;;;;;;;11.95;4.72;;;10.20;99.90;;;;;;5039063;28;20034;-62
2024/03/14 03:47:56;;;;;;;11.85;4.85;;;10.30;99.90;;;;;;5040712;28;20049;-62
2024/03/14 03:50:23;;;;;;;11.68;4.85;;;10.30;99.90;;;;;;5044259;28;20495;-62
2024/03/14 03:52:50;;;;;;;10.98;4.97;;;10.30;99.90;;;;;;5040556;28;20017;-63
2024/03/14 03:55:18;;;;;;;10.48;5.00;;;10.30;99.90;;;;;;5037125;28;20048;-62
2024/03/14 03:57:45;;;;;;;10.75;4.55;;;10.30;99.90;;;;;;5041110;28;20032;-62
2024/03/14 04:02:59;;;;;;;11.18;4.57;;;10.30;99.90;;;;;;5040900;28;20036;-62
2024/03/14 04:05:25;;;;;;;13.23;5.00;;;10.20;99.90;;;;;;5038929;28;20032;-63
2024/03/14 04:07:55;;;;;;;12.02;5.00;;;10.10;99.90;;;;;;5040214;28;20033;-63
2024/03/14 04:10:27;;;;;;;14.18;5.38;;;10.10;99.90;;;;;;5039086;28;20057;-62
2024/03/14 04:12:54;;;;;;;14.23;5.78;;;10.00;99.90;;;;;;5040781;28;20045;-63
2024/03/14 04:15:23;;;;;;;10.00;4.53;;;10.00;99.90;;;;;;5040623;28;20046;-62
2024/03/14 04:17:50;;;;;;;14.20;5.30;;;9.80;99.90;;;;;;5040166;28;20545;-62
2024/03/14 04:20:18;;;;;;;11.13;4.88;;;9.80;99.90;;;;;;5046144;28;20107;-63
2024/03/14 04:22:45;;;;;;;11.57;4.90;;;9.60;99.90;;;;;;5040641;28;20052;-62
2024/03/14 04:25:14;;;;;;;11.52;4.60;;;9.70;99.90;;;;;;5036647;28;20099;-62
2024/03/14 04:27:41;;;;;;;10.90;4.85;;;9.60;99.90;;;;;;5041334;28;20828;-63
2024/03/14 04:30:10;;;;;;;13.85;5.53;;;9.50;99.90;;;;;;5037557;28;20029;-63
2024/03/14 04:32:38;;;;;;;12.38;5.10;;;9.50;99.90;;;;;;5041002;28;20028;-62
2024/03/14 04:35:04;;;;;;;12.85;5.55;;;9.40;99.90;;;;;;5037911;28;20104;-62
2024/03/14 04:37:30;;;;;;;11.27;4.95;;;9.40;99.90;;;;;;5039207;28;20022;-62
2024/03/14 04:39:58;;;;;;;13.55;5.47;;;9.40;99.90;;;;;;5041230;28;20013;-62
2024/03/14 04:42:23;;;;;;;11.80;5.18;;;9.40;99.90;;;;;;5037865;28;20013;-63
2024/03/14 04:44:50;;;;;;;10.93;5.05;;;9.30;99.90;;;;;;5039947;28;20079;-62
2024/03/14 04:47:16;;;;;;;12.43;5.32;;;9.30;99.90;;;;;;5039001;28;20025;-63
2024/03/14 04:49:42;;;;;;;13.05;6.00;;;9.20;99.90;;;;;;5039488;28;20520;-63
2024/03/14 04:52:08;;;;;;;13.20;5.53;;;9.20;99.90;;;;;;5048053;28;20025;-63
2024/03/14 04:54:33;;;;;;;13.50;5.40;;;9.10;99.90;;;;;;5041472;28;20102;-64
2024/03/14 04:57:02;;;;;;;15.65;6.22;;;9.20;99.90;;;;;;5036184;28;20029;-64
2024/03/14 04:59:28;;;;;;;14.15;6.22;;;9.10;99.90;;;;;;5040700;28;20029;-63
2024/03/14 05:01:55;;;;;;;13.48;6.15;;;9.10;99.90;;;;;;5038653;28;20033;-63
2024/03/14 05:04:21;;;;;;;12.10;5.63;;;9.10;99.90;;;;;;5038024;28;20477;-63
2024/03/14 05:06:47;;;;;;;14.27;5.78;;;9.10;99.90;;;;;;5039663;28;20021;-63
2024/03/14 05:09:13;;;;;;;13.52;5.95;;;9.00;99.90;;;;;;5038984;28;20460;-63
2024/03/14 05:11:39;;;;;;;12.43;5.85;;;8.90;99.90;;;;;;5039699;28;20496;-63
2024/03/14 05:14:06;;;;;;;12.27;5.88;;;9.00;99.90;;;;;;5040929;28;20026;-63
2024/03/14 05:16:33;;;;;;;13.82;6.22;;;8.90;99.90;;;;;;5038922;28;20116;-63
2024/03/14 05:18:58;;;;;;;11.68;5.57;;;8.90;99.90;;;;;;5037974;28;20564;-63
2024/03/14 05:21:24;;;;;;;13.55;6.05;;;8.90;99.90;;;;;;5046346;28;20104;-64
2024/03/14 05:23:50;;;;;;;13.32;6.30;;;8.90;99.90;;;;;;5039082;28;20404;-64
2024/03/14 05:26:18;;;;;;;20.33;5.95;;;8.90;99.90;;;;;;5041131;28;20035;-63
2024/03/14 05:28:43;;;;;;;14.07;6.45;;;8.90;99.90;;;;;;5042808;28;20025;-63
2024/03/14 05:31:09;;;;;;;15.55;6.15;;;8.80;99.90;;;;;;5038593;28;20098;-63
2024/03/14 05:33:35;;;;;;;14.43;5.80;;;8.70;99.90;;;;;;5043691;28;20033;-63
2024/03/14 05:36:01;;;;;;;15.43;6.13;;;8.70;99.90;;;;;;5044936;28;20095;-64
2024/03/14 05:38:27;;;;;;;16.17;6.85;;;8.80;99.90;;;;;;5040566;28;20022;-64
2024/03/14 05:40:53;;;;;;;16.08;7.03;;;8.70;99.90;;;;;;5039397;28;20032;-64
2024/03/14 05:43:19;;;;;;;15.48;6.32;;;8.70;99.90;;;;;;5034044;28;20029;-64
2024/03/14 05:45:46;;;;;;;17.65;5.78;;;8.70;99.90;;;;;;5042541;28;20034;-64
2024/03/14 05:48:12;;;;;;;13.68;6.15;;;8.50;99.90;;;;;;5034770;28;20459;-63
2024/03/14 05:50:38;;;;;;;15.35;6.97;;;8.70;99.90;;;;;;5044312;28;20097;-63
2024/03/14 05:53:05;;;;;;;15.20;6.70;;;8.70;99.90;;;;;;5040989;28;20049;-63
2024/03/14 05:55:30;;;;;;;17.55;6.50;;;8.70;99.90;;;;;;5037037;28;20113;-63
2024/03/14 05:57:56;;;;;;;15.82;7.53;;;8.80;99.90;;;;;;5039319;28;20108;-63
2024/03/14 06:00:22;;;;;;;16.13;7.72;;;8.80;99.90;;;;;;5036230;28;20096;-63
2024/03/14 06:02:48;;;;;;;20.05;8.15;;;8.70;99.90;;;;;;5040661;28;20473;-63
2024/03/14 06:05:15;;;;;;;18.15;7.97;;;8.70;99.90;;;;;;5041856;28;20097;-63
2024/03/14 06:07:41;;;;;;;15.75;7.43;;;8.70;99.90;;;;;;5040054;28;20682;-63
2024/03/14 06:10:08;;;;;;;15.65;7.43;;;8.70;99.90;;;;;;5045872;28;20043;-63
2024/03/14 06:12:37;;;;;;;18.13;8.30;;;8.60;99.90;;;;;;5038572;28;20620;-64
2024/03/14 06:15:03;;;;;;;18.00;8.27;;;8.60;99.90;;;;;;5039778;28;20513;-64
2024/03/14 06:17:29;;;;;;;20.40;8.52;;;;;;;;;;5041154;28;20652;-63
2024/03/14 06:19:57;;;;;;;18.48;8.38;;;8.50;99.90;;;;;;5049353;28;20098;-64
2024/03/14 06:22:22;;;;;;;16.80;8.15;;;8.60;99.90;;;;;;5043313;28;20010;-63
2024/03/14 06:24:49;;;;;;;20.85;8.57;;;8.60;99.90;;;;;;5036522;28;20380;-63
2024/03/14 06:27:15;;;;;;;20.45;9.95;;;8.60;99.90;;;;;;5038307;28;20023;-63
2024/03/14 06:29:41;;;;;;;18.75;8.43;;;8.50;99.90;;;;;;5039453;28;20029;-63
2024/03/14 06:32:07;;;;;;;19.15;8.43;;;8.50;99.90;;;;;;5039684;28;20395;-63
2024/03/14 06:34:33;;;;;;;21.13;8.80;;;8.60;99.90;;;;;;5039192;28;20036;-63
2024/03/14 06:36:59;;;;;;;19.92;9.23;;;8.50;99.90;;;;;;5048908;28;20403;-63
2024/03/14 06:39:26;;;;;;;20.90;8.80;;;8.50;99.90;;;;;;5046537;28;20496;-62
2024/03/14 06:41:54;;;;;;;21.92;9.80;;;8.40;99.90;;;;;;5045987;28;20017;-63
2024/03/14 06:44:22;;;;;;;19.60;9.10;;;8.40;99.90;;;;;;5042489;28;20058;-63
2024/03/14 06:46:48;;;;;;;23.27;9.65;;;8.50;99.90;;;;;;5037662;28;20025;-63
2024/03/14 06:49:14;;;;;;;21.65;9.70;;;8.60;99.90;;;;;;5046117;28;20028;-63
2024/03/14 06:51:43;;;;;;;22.63;9.75;;;8.50;99.90;;;;;;5044065;28;20102;-64
2024/03/14 06:54:12;;;;;;;20.60;8.87;;;8.60;99.90;;;;;;5037459;28;20025;-62
2024/03/14 06:56:38;;;;;;;23.25;9.15;;;8.70;99.90;;;;;;5045295;28;20029;-63
2024/03/14 06:59:06;;;;;;;22.30;8.65;;;8.60;99.90;;;;;;5044379;28;20093;-63
2024/03/14 07:01:32;;;;;;;20.80;10.02;;;8.60;99.90;;;;;;5037577;28;20041;-63
2024/03/14 07:03:58;;;;;;;18.73;8.68;;;8.70;99.90;;;;;;5040925;28;20033;-63
2024/03/14 07:06:26;;;;;;;23.42;9.43;;;8.80;99.90;;;;;;5038417;28;20060;-63
2024/03/14 07:08:56;;;;;;;22.33;9.02;;;8.60;99.90;;;;;;5041959;28;20036;-63
2024/03/14 07:11:23;;;;;;;20.10;9.15;;;8.90;99.90;;;;;;5041452;28;20027;-64
2024/03/14 07:13:49;;;;;;;22.88;8.65;;;8.80;99.90;;;;;;5039466;28;20033;-63
2024/03/14 07:16:16;;;;;;;24.40;9.05;;;8.90;99.90;;;;;;5036106;28;20049;-63
2024/03/14 07:18:41;;;;;;;20.92;8.52;;;9.00;99.90;;;;;;5037888;28;20040;-63
2024/03/14 07:21:07;;;;;;;19.92;9.13;;;9.00;99.90;;;;;;5041669;28;20033;-63
2024/03/14 07:23:33;;;;;;;19.17;8.32;;;9.10;99.90;;;;;;5038838;28;20036;-63
2024/03/14 07:25:59;;;;;;;17.92;7.88;;;9.20;99.90;;;;;;5036940;28;20037;-63
2024/03/14 07:28:26;;;;;;;18.27;7.95;;;9.20;99.90;;;;;;5039670;28;20202;-64
2024/03/14 07:30:52;;;;;;;17.58;8.20;;;9.30;99.90;;;;;;5038027;28;20373;-63
2024/03/14 07:33:17;;;;;;;22.00;7.35;;;9.40;99.90;;;;;;5040265;28;20025;-64
2024/03/14 07:35:45;;;;;;;17.00;7.57;;;9.50;99.90;;;;;;5040813;28;20033;-63
2024/03/14 07:38:13;;;;;;;19.52;7.22;;;9.50;99.90;;;;;;5037969;28;20021;-63
2024/03/14 07:40:39;;;;;;;18.40;7.57;;;9.60;99.90;;;;;;5040173;28;20547;-63
2024/03/14 07:43:04;;;;;;;17.23;7.78;;;9.70;99.90;;;;;;5038769;28;20071;-63
2024/03/14 07:45:30;;;;;;;14.93;7.00;;;;;;;;;;5037790;28;20587;-62
2024/03/14 07:47:56;;;;;;;14.95;6.82;;;9.80;99.90;;;;;;5040067;28;20154;-63
2024/03/14 07:50:25;;;;;;;17.02;7.47;;;9.90;99.90;;;;;;5041773;28;20029;-63
2024/03/14 07:52:51;;;;;;;14.63;6.97;;;9.90;99.90;;;;;;5037536;28;20027;-63
2024/03/14 07:55:17;;;;;;;14.38;7.18;;;9.90;99.90;;;;;;5033377;28;20037;-63
2024/03/14 07:57:42;;;;;;;16.20;7.55;;;10.00;99.90;;;;;;5039997;28;20037;-63
2024/03/14 08:00:08;;;;;;;15.80;7.43;;;9.90;99.90;;;;;;5038077;28;20397;-63
2024/03/14 08:02:35;;;;;;;20.40;8.27;;;9.90;99.90;;;;;;5038665;28;20160;-62
2024/03/14 08:05:06;;;;;;;15.27;7.05;;;9.90;99.90;;;;;;5038359;28;20021;-64
2024/03/14 08:07:33;;;;;;;18.50;7.20;;;9.90;99.90;;;;;;5038790;28;20100;-63
2024/03/14 08:09:59;;;;;;;18.63;7.20;;;10.00;99.90;;;;;;5036962;28;20248;-63
2024/03/14 08:12:31;;;;;;;15.95;6.68;;;10.00;99.90;;;;;;5040639;28;20029;-63
2024/03/14 08:15:16;;;;;;;15.23;6.80;;;10.10;99.90;;;;;;5040619;28;20044;-63
2024/03/14 08:17:45;;;;;;;14.40;7.47;;;10.20;99.90;;;;;;5037110;28;20457;-63
2024/03/14 08:20:15;;;;;;;17.70;6.93;;;10.20;99.90;;;;;;5039956;28;20041;-63
2024/03/14 08:22:42;;;;;;;15.95;6.82;;;10.30;99.90;;;;;;5036962;28;20014;-63
2024/03/14 08:25:15;;;;;;;14.20;6.82;;;10.30;99.90;;;;;;5037203;28;20030;-63
2024/03/14 08:27:43;;;;;;;14.77;6.30;;;10.40;99.90;;;;;;5036321;28;20524;-63
2024/03/14 08:30:10;;;;;;;13.52;6.88;;;10.50;99.90;;;;;;5037880;28;20025;-63
2024/03/14 08:32:40;;;;;;;14.40;6.75;;;10.70;99.90;;;;;;5034701;28;20921;-63
2024/03/14 08:35:06;;;;;;;15.13;6.22;;;10.80;99.90;;;;;;5039298;28;20025;-63
2024/03/14 08:37:32;;;;;;;13.98;6.25;;;10.90;99.90;;;;;;5040701;28;20032;-63
2024/03/14 08:39:58;;;;;;;13.27;6.90;;;11.30;99.90;;;;;;5038325;28;20400;-63
2024/03/14 08:42:31;;;;;;;13.32;5.78;;;11.50;99.90;;;;;;5039714;28;20025;-63
2024/03/14 08:45:01;;;;;;;10.93;4.80;;;12.00;99.90;;;;;;5038066;28;20067;-63
2024/03/14 08:47:27;;;;;;;13.55;5.82;;;12.30;99.90;;;;;;5035799;28;20055;-63
2024/03/14 08:49:53;;;;;;;11.93;5.00;;;12.60;99.90;;;;;;5038654;28;20370;-63
2024/03/14 08:52:21;;;;;;;12.02;5.03;;;12.90;99.90;;;;;;5034374;28;20022;-62
2024/03/14 08:54:47;;;;;;;10.88;4.55;;;13.10;99.90;;;;;;5037482;28;20025;-63
2024/03/14 08:57:12;;;;;;;11.10;4.72;;;13.60;99.90;;;;;;5037463;28;20029;-63
2024/03/14 08:59:42;;;;;;;10.88;4.63;;;14.10;99.90;;;;;;5042946;28;20342;-63
2024/03/14 09:02:08;;;;;;;9.23;4.10;;;14.60;99.90;;;;;;5046607;28;20074;-63
2024/03/14 09:04:35;;;;;;;10.57;4.90;;;14.90;99.90;;;;;;5040536;28;20100;-63
2024/03/14 09:07:06;;;;;;;10.65;4.93;;;15.10;99.90;;;;;;5044149;28;20177;-63
2024/03/14 09:09:34;;;;;;;9.23;3.88;;;15.40;99.90;;;;;;5043020;28;20029;-63
2024/03/14 09:12:13;;;;;;;10.20;4.45;;;15.40;99.90;;;;;;5043272;28;20064;-63
2024/03/14 09:14:42;;;;;;;8.85;4.20;;;15.40;99.90;;;;;;5042799;28;20061;-63
2024/03/14 09:17:11;;;;;;;9.40;4.10;;;15.20;99.90;;;;;;5039395;28;20060;-63
2024/03/14 09:19:39;;;;;;;12.40;4.70;;;15.20;99.90;;;;;;5038944;28;20018;-64
2024/03/14 09:22:06;;;;;;;8.88;3.97;;;15.40;99.90;;;;;;5046875;28;20405;-64
2024/03/14 09:24:33;;;;;;;11.13;4.35;;;15.70;99.90;;;;;;5042783;28;20018;-63
2024/03/14 09:26:58;;;;;;;11.38;4.10;;;15.80;99.90;;;;;;5040823;28;20029;-63
2024/03/14 09:29:24;;;;;;;10.25;4.50;;;16.10;99.90;;;;;;5040744;28;20461;-62
2024/03/14 09:31:49;;;;;;;14.52;4.10;;;16.10;99.90;;;;;;5039700;28;20037;-63
2024/03/14 09:34:17;;;;;;;9.43;4.30;;;16.30;99.90;;;;;;5040410;28;20033;-63
2024/03/14 09:36:43;;;;;;;11.15;4.07;;;16.40;99.90;;;;;;5042083;28;20724;-63
2024/03/14 09:39:21;;;;;;;8.52;3.70;;;16.50;99.90;;;;;;5042967;28;20096;-63
2024/03/14 09:41:48;;;;;;;8.80;3.85;;;16.50;99.90;;;;;;5041736;28;20017;-63
2024/03/14 09:44:23;;;;;;;9.30;3.90;;;16.70;99.90;;;;;;5039472;28;20393;-63
2024/03/14 09:46:51;;;;;;;8.38;3.67;;;16.90;99.90;;;;;;5041123;28;20354;-62
2024/03/14 09:49:19;;;;;;;9.88;4.20;;;17.00;99.90;;;;;;5038810;28;20464;-63
2024/03/14 09:51:48;;;;;;;8.10;3.60;;;16.80;99.90;;;;;;5049254;28;20518;-62
2024/03/14 09:54:17;;;;;;;11.07;4.07;;;16.40;99.90;;;;;;5039612;28;20476;-63
2024/03/14 09:56:43;;;;;;;13.88;3.67;;;16.50;99.90;;;;;;5039018;28;20460;-63
2024/03/14 09:59:10;;;;;;;8.63;3.97;;;16.70;99.90;;;;;;5038916;28;20044;-63
2024/03/14 10:01:40;;;;;;;8.77;3.67;;;16.90;99.90;;;;;;5037939;28;20436;-63
2024/03/14 10:04:10;;;;;;;8.02;3.80;;;16.80;99.90;;;;;;5039400;28;20033;-63
2024/03/14 10:06:40;;;;;;;8.68;3.72;;;16.40;99.90;;;;;;5038630;28;20347;-63
2024/03/14 10:09:11;;;;;;;9.48;3.90;;;16.50;99.90;;;;;;5036662;28;20030;-63
2024/03/14 10:11:39;;;;;;;9.07;3.60;;;16.50;99.90;;;;;;5041880;28;20033;-64
2024/03/14 10:14:21;;;;;;;7.25;3.25;;;17.30;99.90;;;;;;5040368;28;20586;-63
2024/03/14 10:16:50;;;;;;;8.18;3.35;;;17.90;99.90;;;;;;5039969;28;20365;-63
2024/03/14 10:19:16;;;;;;;10.23;3.60;;;17.80;99.90;;;;;;5040543;28;20131;-63
2024/03/14 10:21:43;;;;;;;9.45;3.85;;;17.80;99.90;;;;;;5044232;28;20397;-63
2024/03/14 10:24:09;;;;;;;8.10;3.88;;;17.70;99.90;;;;;;5038679;28;20457;-64
2024/03/14 10:26:41;;;;;;;9.23;3.35;;;17.30;99.90;;;;;;5039816;28;20044;-63
2024/03/14 10:29:14;;;;;;;9.60;3.97;;;16.90;99.90;;;;;;5038615;28;20417;-63
2024/03/14 10:31:45;;;;;;;9.63;3.60;;;16.70;99.90;;;;;;5040551;28;20032;-64
2024/03/14 10:34:14;;;;;;;9.20;3.63;;;16.90;99.90;;;;;;5039094;28;20025;-63
2024/03/14 10:36:41;;;;;;;9.20;3.92;;;16.80;99.90;;;;;;5041609;28;20037;-64
2024/03/14 10:39:14;;;;;;;10.85;4.45;;;16.70;99.90;;;;;;5041005;28;20017;-63
2024/03/14 10:41:47;;;;;;;9.85;4.13;;;16.70;99.90;;;;;;5038538;28;20047;-64
2024/03/14 10:44:18;;;;;;;9.13;3.88;;;16.90;99.90;;;;;;5040457;28;20044;-63
2024/03/14 10:46:51;;;;;;;9.07;4.18;;;17.00;99.90;;;;;;5039660;28;20338;-64
2024/03/14 10:49:22;;;;;;;9.55;3.83;;;17.40;99.90;;;;;;5039672;28;20027;-65
2024/03/14 10:51:51;;;;;;;8.65;3.72;;;18.00;99.90;;;;;;5045386;28;20108;-64
2024/03/14 10:54:21;;;;;;;9.05;4.20;;;;;;;;;;5038987;28;20094;-64
2024/03/14 10:56:49;;;;;;;6.53;2.80;;;19.40;98.50;;;;;;5035419;28;20071;-64
2024/03/14 10:59:16;;;;;;;7.60;3.42;;;19.60;98.30;;;;;;5039693;28;20056;-64
2024/03/14 11:01:50;;;;;;;8.00;3.03;;;19.30;98.40;;;;;;5039594;28;20025;-64
2024/03/14 11:04:17;;;;;;;9.18;3.38;;;19.20;98.00;;;;;;5038190;28;20052;-64
2024/03/14 11:06:47;;;;;;;8.18;3.05;;;19.20;98.20;;;;;;5039061;28;20017;-64
2024/03/14 11:09:15;;;;;;;7.20;3.25;;;18.80;99.90;;;;;;5039445;28;20037;-64
2024/03/14 11:11:45;;;;;;;10.93;2.85;;;18.30;99.90;;;;;;5039827;28;20477;-64
2024/03/14 11:14:11;;;;;;;;;;;18.10;99.90;;;;;;5042208;28;20483;-63
2024/03/14 11:16:42;;;;;;;8.38;3.50;;;18.20;99.90;;;;;;5040021;28;19943;-64
2024/03/14 11:19:16;;;;;;;8.13;3.22;;;17.70;99.90;;;;;;5038333;28;20029;-64
2024/03/14 11:21:44;;;;;;;8.55;3.08;;;17.60;99.90;;;;;;5043620;28;20017;-64
2024/03/14 11:24:12;;;;;;;8.40;2.92;;;18.20;99.90;;;;;;5038839;28;20071;-64
2024/03/14 11:26:42;;;;;;;7.53;3.13;;;19.10;99.90;;;;;;5036110;28;20039;-64
2024/03/14 11:29:11;;;;;;;;;;;19.60;97.70;;;;;;5039314;28;20072;-64
2024/03/14 11:31:44;;;;;;;6.75;2.72;;;18.90;99.10;;;;;;5039738;28;19904;-65
2024/03/14 11:34:17;;;;;;;8.95;2.95;;;18.80;99.40;;;;;;5039240;28;20044;-65
2024/03/14 11:36:50;;;;;;;6.40;2.20;;;19.10;99.70;;;;;;5039909;28;20076;-63
2024/03/14 11:39:26;;;;;;;6.80;2.65;;;19.50;98.50;;;;;;5040651;28;20026;-63
2024/03/14 11:42:10;;;;;;;7.07;3.10;;;19.30;98.20;;;;;;5037251;28;20497;-63
2024/03/14 11:44:39;;;;;;;7.68;3.40;;;19.00;99.30;;;;;;5037220;28;20025;-63
2024/03/14 11:47:05;;;;;;;8.02;2.85;;;18.70;99.80;;;;;;5039921;28;20534;-62
2024/03/14 11:49:33;;;;;;;6.57;3.03;;;19.00;98.60;;;;;;5035457;28;20034;-61
2024/03/14 11:52:00;;;;;;;7.18;3.00;;;19.40;97.60;;;;;;5040983;28;20531;-62
2024/03/14 11:54:26;;;;;;;7.72;3.20;;;19.70;96.90;;;;;;5040420;28;20376;-62
2024/03/14 11:56:51;;;;;;;6.65;3.20;;;20.10;96.40;;;;;;5034691;28;20029;-62
2024/03/14 11:59:20;;;;;;;7.45;2.80;;;20.80;95.00;;;;;;5038832;28;20036;-63
2024/03/14 12:01:47;;;;;;;7.93;3.10;;;21.50;91.00;;;;;;5039192;28;20025;-63
2024/03/14 12:04:13;;;;;;;6.97;2.80;;;21.30;91.40;;;;;;5038528;28;20013;-63
2024/03/14 12:06:41;;;;;;;8.35;3.00;;;20.70;93.60;;;;;;5036087;28;20372;-63
2024/03/14 12:09:19;;;;;;;8.82;3.13;;;20.00;94.50;;;;;;5038738;28;20079;-63
2024/03/14 12:11:45;;;;;;;7.90;3.20;;;19.70;96.60;;;;;;5038995;28;20087;-62
2024/03/14 12:14:14;;;;;;;7.50;2.95;;;19.70;97.10;;;;;;5040786;28;20032;-63
2024/03/14 12:16:45;;;;;;;7.18;2.60;;;20.10;97.40;;;;;;5036508;28;20053;-63
2024/03/14 12:19:16;;;;;;;8.65;2.90;;;20.70;93.30;;;;;;5036591;28;20036;-63
2024/03/14 12:21:42;;;;;;;5.57;2.08;;;22.20;88.30;;;;;;5042013;28;20098;-63
2024/03/14 12:24:13;;;;;;;9.07;3.10;;;22.10;87.20;;;;;;5038197;28;20071;-63
2024/03/14 12:26:39;;;;;;;7.55;2.50;;;22.50;86.80;;;;;;5035706;28;20127;-63
2024/03/14 12:29:07;;;;;;;6.20;2.40;;;23.30;82.10;;;;;;5036497;28;20021;-63
2024/03/14 12:31:32;;;;;;;6.82;2.83;;;23.80;79.30;;;;;;5037290;28;20038;-64
2024/03/14 12:33:59;;;;;;;8.07;2.83;;;24.10;76.80;;;;;;5042260;28;20025;-63
2024/03/14 12:36:25;;;;;;;7.40;2.47;;;24.20;74.80;;;;;;5040494;28;20109;-63
2024/03/14 12:38:51;;;;;;;6.30;2.42;;;24.20;73.20;;;;;;5043950;28;20476;-63
2024/03/14 12:41:18;;;;;;;7.35;2.67;;;24.20;72.60;;;;;;5041257;28;20353;-63
2024/03/14 12:43:47;;;;;;;7.07;2.33;;;23.70;74.30;;;;;;5042858;28;20021;-63
2024/03/14 12:46:15;;;;;;;7.35;2.40;;;23.30;73.50;;;;;;5040886;28;20025;-63
2024/03/14 12:48:41;;;;;;;7.25;2.22;;;22.60;77.80;;;;;;5042108;28;20025;-63